Marne, Ohio
Current Conditions -  °F | °C
As of 3:54 PM on Saturday 22 Nov 2014 (Local Time) from KVTA Reporting Station
Clear Clear  
Wind Chill: 46°   Ceiling: Unl
Heat Index: 46°   Visibility: 10mi
Dew Point: 35°   Wind: 3mph
Humidity: 66%   Direction: 210°SSW
Pressure: 30.12"   Gusts: NA
Location:  40.1181°N, 82.3726°W
Report Text: KVTA 222054Z AUTO 21003KT 10SM CLR 08/02 A3012 RMK AO2 SLP208 T00780017 56022
Loading
Personal Weather Stations






























Interactive Weather Map New forecast layout! Learn more

10-Day Weather Forecast

Advertisements
Track Severe Weather on mobile